METAR Data
IDs: Format: Raw Decoded Include TAF

Data at: 0222 UTC 29 May 2022

ESOH 290150Z AUTO 01003KT 9999 NCD 01/M00 Q1007